sensor_id;sensor_type;location;lat;lon;timestamp;P1;durP1;ratioP1;P2;durP2;ratioP2
77984;SDS011;67177;47.240;-1.546;2024-02-04T00:01:38;5.17;;;1.83;;
77984;SDS011;67177;47.240;-1.546;2024-02-04T00:04:04;4.10;;;1.60;;
77984;SDS011;67177;47.240;-1.546;2024-02-04T00:06:30;4.45;;;1.60;;
77984;SDS011;67177;47.240;-1.546;2024-02-04T00:08:56;4.20;;;1.53;;
77984;SDS011;67177;47.240;-1.546;2024-02-04T00:11:22;4.60;;;1.63;;
77984;SDS011;67177;47.240;-1.546;2024-02-04T00:13:48;4.60;;;1.73;;
77984;SDS011;67177;47.240;-1.546;2024-02-04T00:16:13;4.47;;;1.50;;
77984;SDS011;67177;47.240;-1.546;2024-02-04T00:18:39;4.43;;;1.58;;
77984;SDS011;67177;47.240;-1.546;2024-02-04T00:21:05;5.50;;;1.60;;
77984;SDS011;67177;47.240;-1.546;2024-02-04T00:23:30;4.33;;;1.50;;
77984;SDS011;67177;47.240;-1.546;2024-02-04T00:25:56;4.72;;;1.42;;
77984;SDS011;67177;47.240;-1.546;2024-02-04T00:28:22;4.17;;;1.30;;
77984;SDS011;67177;47.240;-1.546;2024-02-04T00:30:47;3.90;;;1.20;;
77984;SDS011;67177;47.240;-1.546;2024-02-04T00:33:20;4.57;;;1.40;;
77984;SDS011;67177;47.240;-1.546;2024-02-04T00:35:46;5.78;;;1.55;;
77984;SDS011;67177;47.240;-1.546;2024-02-04T00:38:11;4.73;;;1.57;;
77984;SDS011;67177;47.240;-1.546;2024-02-04T00:40:37;4.45;;;1.45;;
77984;SDS011;67177;47.240;-1.546;2024-02-04T00:43:03;5.10;;;1.90;;
77984;SDS011;67177;47.240;-1.546;2024-02-04T00:45:28;4.82;;;1.67;;
77984;SDS011;67177;47.240;-1.546;2024-02-04T00:47:54;4.70;;;1.50;;
77984;SDS011;67177;47.240;-1.546;2024-02-04T00:50:19;4.70;;;1.70;;
77984;SDS011;67177;47.240;-1.546;2024-02-04T00:52:45;4.05;;;1.38;;
77984;SDS011;67177;47.240;-1.546;2024-02-04T00:55:11;5.00;;;1.70;;
77984;SDS011;67177;47.240;-1.546;2024-02-04T00:57:36;5.50;;;1.90;;
77984;SDS011;67177;47.240;-1.546;2024-02-04T01:00:02;4.93;;;1.50;;
77984;SDS011;67177;47.240;-1.546;2024-02-04T01:02:29;4.10;;;1.33;;
77984;SDS011;67177;47.240;-1.546;2024-02-04T01:04:54;4.20;;;1.43;;
77984;SDS011;67177;47.240;-1.546;2024-02-04T01:07:21;4.60;;;1.60;;
77984;SDS011;67177;47.240;-1.546;2024-02-04T01:09:46;4.10;;;1.50;;
77984;SDS011;67177;47.240;-1.546;2024-02-04T01:12:12;5.43;;;1.70;;
77984;SDS011;67177;47.240;-1.546;2024-02-04T01:14:37;4.30;;;1.50;;
77984;SDS011;67177;47.240;-1.546;2024-02-04T01:17:03;5.07;;;1.30;;
77984;SDS011;67177;47.240;-1.546;2024-02-04T01:19:29;4.13;;;1.23;;
77984;SDS011;67177;47.240;-1.546;2024-02-04T01:21:54;4.10;;;1.40;;
77984;SDS011;67177;47.240;-1.546;2024-02-04T01:24:20;5.47;;;1.55;;
77984;SDS011;67177;47.240;-1.546;2024-02-04T01:26:45;5.13;;;1.60;;
77984;SDS011;67177;47.240;-1.546;2024-02-04T01:29:11;3.97;;;1.40;;
77984;SDS011;67177;47.240;-1.546;2024-02-04T01:31:37;4.65;;;1.40;;
77984;SDS011;67177;47.240;-1.546;2024-02-04T01:34:02;4.90;;;1.30;;
77984;SDS011;67177;47.240;-1.546;2024-02-04T01:36:28;4.83;;;1.40;;
77984;SDS011;67177;47.240;-1.546;2024-02-04T01:38:55;4.53;;;1.13;;
77984;SDS011;67177;47.240;-1.546;2024-02-04T01:41:21;3.97;;;1.25;;
77984;SDS011;67177;47.240;-1.546;2024-02-04T01:43:48;3.97;;;1.00;;
77984;SDS011;67177;47.240;-1.546;2024-02-04T01:46:13;3.88;;;1.20;;
77984;SDS011;67177;47.240;-1.546;2024-02-04T01:48:39;4.10;;;1.23;;
77984;SDS011;67177;47.240;-1.546;2024-02-04T01:51:04;4.15;;;1.30;;
77984;SDS011;67177;47.240;-1.546;2024-02-04T01:53:31;4.50;;;1.40;;
77984;SDS011;67177;47.240;-1.546;2024-02-04T01:55:59;3.70;;;1.10;;
77984;SDS011;67177;47.240;-1.546;2024-02-04T01:58:24;5.70;;;1.38;;
77984;SDS011;67177;47.240;-1.546;2024-02-04T02:00:50;3.63;;;1.15;;
77984;SDS011;67177;47.240;-1.546;2024-02-04T02:03:16;4.10;;;1.10;;
77984;SDS011;67177;47.240;-1.546;2024-02-04T02:05:43;3.72;;;1.10;;
77984;SDS011;67177;47.240;-1.546;2024-02-04T02:08:09;3.40;;;1.08;;
77984;SDS011;67177;47.240;-1.546;2024-02-04T02:10:35;4.37;;;1.30;;
77984;SDS011;67177;47.240;-1.546;2024-02-04T02:13:04;4.07;;;1.20;;
77984;SDS011;67177;47.240;-1.546;2024-02-04T02:15:36;4.25;;;1.33;;
77984;SDS011;67177;47.240;-1.546;2024-02-04T02:18:16;5.00;;;1.50;;
77984;SDS011;67177;47.240;-1.546;2024-02-04T02:26:53;4.95;;;1.27;;
77984;SDS011;67177;47.240;-1.546;2024-02-04T02:29:19;4.28;;;1.50;;
77984;SDS011;67177;47.240;-1.546;2024-02-04T02:31:44;4.27;;;1.40;;
77984;SDS011;67177;47.240;-1.546;2024-02-04T02:34:11;3.85;;;1.13;;
77984;SDS011;67177;47.240;-1.546;2024-02-04T02:36:42;4.18;;;1.38;;
77984;SDS011;67177;47.240;-1.546;2024-02-04T02:39:17;3.53;;;1.03;;
77984;SDS011;67177;47.240;-1.546;2024-02-04T02:41:48;3.90;;;1.10;;
77984;SDS011;67177;47.240;-1.546;2024-02-04T02:44:18;4.03;;;1.13;;
77984;SDS011;67177;47.240;-1.546;2024-02-04T02:46:45;4.90;;;1.38;;
77984;SDS011;67177;47.240;-1.546;2024-02-04T02:49:12;4.68;;;1.67;;
77984;SDS011;67177;47.240;-1.546;2024-02-04T02:51:38;4.23;;;1.20;;
77984;SDS011;67177;47.240;-1.546;2024-02-04T02:54:04;4.00;;;1.42;;
77984;SDS011;67177;47.240;-1.546;2024-02-04T02:56:30;3.63;;;1.07;;
77984;SDS011;67177;47.240;-1.546;2024-02-04T02:58:55;3.97;;;1.30;;
77984;SDS011;67177;47.240;-1.546;2024-02-04T03:01:21;3.73;;;1.00;;
77984;SDS011;67177;47.240;-1.546;2024-02-04T03:03:48;3.85;;;1.15;;
77984;SDS011;67177;47.240;-1.546;2024-02-04T03:06:14;3.03;;;1.00;;
77984;SDS011;67177;47.240;-1.546;2024-02-04T03:08:40;3.60;;;1.05;;
77984;SDS011;67177;47.240;-1.546;2024-02-04T03:11:05;3.07;;;0.90;;
77984;SDS011;67177;47.240;-1.546;2024-02-04T03:13:31;3.80;;;1.10;;
77984;SDS011;67177;47.240;-1.546;2024-02-04T03:15:56;3.20;;;1.00;;
77984;SDS011;67177;47.240;-1.546;2024-02-04T03:18:22;3.23;;;1.00;;
77984;SDS011;67177;47.240;-1.546;2024-02-04T03:20:48;3.08;;;1.00;;
77984;SDS011;67177;47.240;-1.546;2024-02-04T03:23:13;4.90;;;1.00;;
77984;SDS011;67177;47.240;-1.546;2024-02-04T03:25:39;3.17;;;1.00;;
77984;SDS011;67177;47.240;-1.546;2024-02-04T03:28:05;4.68;;;1.10;;
77984;SDS011;67177;47.240;-1.546;2024-02-04T03:30:30;3.70;;;1.13;;
77984;SDS011;67177;47.240;-1.546;2024-02-04T03:32:56;4.72;;;1.20;;
77984;SDS011;67177;47.240;-1.546;2024-02-04T03:35:21;3.75;;;0.82;;
77984;SDS011;67177;47.240;-1.546;2024-02-04T03:37:47;3.27;;;1.00;;
77984;SDS011;67177;47.240;-1.546;2024-02-04T03:40:13;2.53;;;0.80;;
77984;SDS011;67177;47.240;-1.546;2024-02-04T03:42:38;4.63;;;1.20;;
77984;SDS011;67177;47.240;-1.546;2024-02-04T03:45:05;3.00;;;0.98;;
77984;SDS011;67177;47.240;-1.546;2024-02-04T03:47:31;3.10;;;1.00;;
77984;SDS011;67177;47.240;-1.546;2024-02-04T03:49:57;2.72;;;0.75;;
77984;SDS011;67177;47.240;-1.546;2024-02-04T03:52:22;2.97;;;0.80;;
77984;SDS011;67177;47.240;-1.546;2024-02-04T03:54:48;2.92;;;0.90;;
77984;SDS011;67177;47.240;-1.546;2024-02-04T03:57:14;2.67;;;0.80;;
77984;SDS011;67177;47.240;-1.546;2024-02-04T03:59:39;3.10;;;0.80;;
77984;SDS011;67177;47.240;-1.546;2024-02-04T04:02:05;3.15;;;0.90;;
77984;SDS011;67177;47.240;-1.546;2024-02-04T04:04:30;2.80;;;0.80;;
77984;SDS011;67177;47.240;-1.546;2024-02-04T04:06:56;3.60;;;0.80;;
77984;SDS011;67177;47.240;-1.546;2024-02-04T04:09:22;2.60;;;1.00;;
77984;SDS011;67177;47.240;-1.546;2024-02-04T04:11:48;2.88;;;0.85;;
77984;SDS011;67177;47.240;-1.546;2024-02-04T04:14:13;3.33;;;0.80;;
77984;SDS011;67177;47.240;-1.546;2024-02-04T04:16:39;5.50;;;1.30;;
77984;SDS011;67177;47.240;-1.546;2024-02-04T04:19:05;3.72;;;1.10;;
77984;SDS011;67177;47.240;-1.546;2024-02-04T04:21:30;5.00;;;1.37;;
77984;SDS011;67177;47.240;-1.546;2024-02-04T04:23:56;3.28;;;0.90;;
77984;SDS011;67177;47.240;-1.546;2024-02-04T04:26:21;3.20;;;0.90;;
77984;SDS011;67177;47.240;-1.546;2024-02-04T04:28:47;3.00;;;1.00;;
77984;SDS011;67177;47.240;-1.546;2024-02-04T04:31:13;2.90;;;0.90;;
77984;SDS011;67177;47.240;-1.546;2024-02-04T04:33:38;3.00;;;0.80;;
77984;SDS011;67177;47.240;-1.546;2024-02-04T04:36:04;2.87;;;1.00;;
77984;SDS011;67177;47.240;-1.546;2024-02-04T04:38:30;2.70;;;0.80;;
77984;SDS011;67177;47.240;-1.546;2024-02-04T04:40:55;3.43;;;1.10;;
77984;SDS011;67177;47.240;-1.546;2024-02-04T04:43:21;4.32;;;1.40;;
77984;SDS011;67177;47.240;-1.546;2024-02-04T04:45:47;3.63;;;1.20;;
77984;SDS011;67177;47.240;-1.546;2024-02-04T04:48:12;4.17;;;1.10;;
77984;SDS011;67177;47.240;-1.546;2024-02-04T04:50:38;4.78;;;1.58;;
77984;SDS011;67177;47.240;-1.546;2024-02-04T04:53:03;4.30;;;1.33;;
77984;SDS011;67177;47.240;-1.546;2024-02-04T04:55:29;4.90;;;1.33;;
77984;SDS011;67177;47.240;-1.546;2024-02-04T04:57:55;4.30;;;1.30;;
77984;SDS011;67177;47.240;-1.546;2024-02-04T05:00:20;3.70;;;1.20;;
77984;SDS011;67177;47.240;-1.546;2024-02-04T05:02:46;3.83;;;1.17;;
77984;SDS011;67177;47.240;-1.546;2024-02-04T05:05:13;3.35;;;1.10;;
77984;SDS011;67177;47.240;-1.546;2024-02-04T05:07:39;4.40;;;1.33;;
77984;SDS011;67177;47.240;-1.546;2024-02-04T05:10:05;3.40;;;1.15;;
77984;SDS011;67177;47.240;-1.546;2024-02-04T05:12:31;3.65;;;1.10;;
77984;SDS011;67177;47.240;-1.546;2024-02-04T05:14:57;3.58;;;1.15;;
77984;SDS011;67177;47.240;-1.546;2024-02-04T05:17:23;4.43;;;1.50;;
77984;SDS011;67177;47.240;-1.546;2024-02-04T05:19:49;3.87;;;1.30;;
77984;SDS011;67177;47.240;-1.546;2024-02-04T05:22:14;4.18;;;1.20;;
77984;SDS011;67177;47.240;-1.546;2024-02-04T05:24:40;4.63;;;1.40;;
77984;SDS011;67177;47.240;-1.546;2024-02-04T05:27:07;4.57;;;1.45;;
77984;SDS011;67177;47.240;-1.546;2024-02-04T05:29:33;6.73;;;1.70;;
77984;SDS011;67177;47.240;-1.546;2024-02-04T05:31:58;5.90;;;1.70;;
77984;SDS011;67177;47.240;-1.546;2024-02-04T05:34:24;4.20;;;1.53;;
77984;SDS011;67177;47.240;-1.546;2024-02-04T05:36:50;5.05;;;1.70;;
77984;SDS011;67177;47.240;-1.546;2024-02-04T05:39:15;5.53;;;1.77;;
77984;SDS011;67177;47.240;-1.546;2024-02-04T05:41:42;4.50;;;1.90;;
77984;SDS011;67177;47.240;-1.546;2024-02-04T05:44:08;5.00;;;1.50;;
77984;SDS011;67177;47.240;-1.546;2024-02-04T05:46:37;5.90;;;2.00;;
77984;SDS011;67177;47.240;-1.546;2024-02-04T05:49:04;6.68;;;2.15;;
77984;SDS011;67177;47.240;-1.546;2024-02-04T05:51:31;7.82;;;2.30;;
77984;SDS011;67177;47.240;-1.546;2024-02-04T05:53:58;6.93;;;2.10;;
77984;SDS011;67177;47.240;-1.546;2024-02-04T05:56:24;6.05;;;2.03;;
77984;SDS011;67177;47.240;-1.546;2024-02-04T05:58:49;5.83;;;1.80;;
77984;SDS011;67177;47.240;-1.546;2024-02-04T06:01:16;4.47;;;1.40;;
77984;SDS011;67177;47.240;-1.546;2024-02-04T06:03:42;4.53;;;1.60;;
77984;SDS011;67177;47.240;-1.546;2024-02-04T06:06:17;4.95;;;1.38;;
77984;SDS011;67177;47.240;-1.546;2024-02-04T06:08:45;4.53;;;1.40;;
77984;SDS011;67177;47.240;-1.546;2024-02-04T06:11:14;4.03;;;1.20;;
77984;SDS011;67177;47.240;-1.546;2024-02-04T06:13:41;4.60;;;1.17;;
77984;SDS011;67177;47.240;-1.546;2024-02-04T06:16:08;4.30;;;1.10;;
77984;SDS011;67177;47.240;-1.546;2024-02-04T06:18:35;5.85;;;1.50;;
77984;SDS011;67177;47.240;-1.546;2024-02-04T06:21:06;4.30;;;1.40;;
77984;SDS011;67177;47.240;-1.546;2024-02-04T06:23:32;5.72;;;2.10;;
77984;SDS011;67177;47.240;-1.546;2024-02-04T06:25:58;6.18;;;2.80;;
77984;SDS011;67177;47.240;-1.546;2024-02-04T06:28:25;6.57;;;2.40;;
77984;SDS011;67177;47.240;-1.546;2024-02-04T06:30:50;6.93;;;2.23;;
77984;SDS011;67177;47.240;-1.546;2024-02-04T06:33:17;6.60;;;2.10;;
77984;SDS011;67177;47.240;-1.546;2024-02-04T06:35:42;4.70;;;1.80;;
77984;SDS011;67177;47.240;-1.546;2024-02-04T06:38:08;4.40;;;1.33;;
77984;SDS011;67177;47.240;-1.546;2024-02-04T06:40:34;4.22;;;1.55;;
77984;SDS011;67177;47.240;-1.546;2024-02-04T06:42:59;4.93;;;1.50;;
77984;SDS011;67177;47.240;-1.546;2024-02-04T06:45:25;4.15;;;1.30;;
77984;SDS011;67177;47.240;-1.546;2024-02-04T06:47:50;3.87;;;1.20;;
77984;SDS011;67177;47.240;-1.546;2024-02-04T06:50:16;4.07;;;1.17;;
77984;SDS011;67177;47.240;-1.546;2024-02-04T06:52:46;2.70;;;0.80;;
77984;SDS011;67177;47.240;-1.546;2024-02-04T06:55:11;3.63;;;1.20;;
77984;SDS011;67177;47.240;-1.546;2024-02-04T06:57:37;3.95;;;1.20;;
77984;SDS011;67177;47.240;-1.546;2024-02-04T07:00:05;3.63;;;1.23;;
77984;SDS011;67177;47.240;-1.546;2024-02-04T07:02:33;3.30;;;1.07;;
77984;SDS011;67177;47.240;-1.546;2024-02-04T07:04:59;3.88;;;1.05;;
77984;SDS011;67177;47.240;-1.546;2024-02-04T07:07:24;3.80;;;1.08;;
77984;SDS011;67177;47.240;-1.546;2024-02-04T07:09:50;3.03;;;0.97;;
77984;SDS011;67177;47.240;-1.546;2024-02-04T07:12:16;3.00;;;0.90;;
77984;SDS011;67177;47.240;-1.546;2024-02-04T07:14:41;2.55;;;0.80;;
77984;SDS011;67177;47.240;-1.546;2024-02-04T07:17:07;3.10;;;0.80;;
77984;SDS011;67177;47.240;-1.546;2024-02-04T07:19:32;3.03;;;0.93;;
77984;SDS011;67177;47.240;-1.546;2024-02-04T07:21:59;3.50;;;1.00;;
77984;SDS011;67177;47.240;-1.546;2024-02-04T07:24:25;2.95;;;0.90;;
77984;SDS011;67177;47.240;-1.546;2024-02-04T07:26:51;3.27;;;0.97;;
77984;SDS011;67177;47.240;-1.546;2024-02-04T07:29:17;3.40;;;0.90;;
77984;SDS011;67177;47.240;-1.546;2024-02-04T07:31:42;3.77;;;1.00;;
77984;SDS011;67177;47.240;-1.546;2024-02-04T07:34:08;4.90;;;0.97;;
77984;SDS011;67177;47.240;-1.546;2024-02-04T07:36:33;3.75;;;1.20;;
77984;SDS011;67177;47.240;-1.546;2024-02-04T07:38:59;4.00;;;1.17;;
77984;SDS011;67177;47.240;-1.546;2024-02-04T07:41:25;3.72;;;1.30;;
77984;SDS011;67177;47.240;-1.546;2024-02-04T07:43:51;5.17;;;1.50;;
77984;SDS011;67177;47.240;-1.546;2024-02-04T07:46:17;5.22;;;1.80;;
77984;SDS011;67177;47.240;-1.546;2024-02-04T07:48:42;5.70;;;2.20;;
77984;SDS011;67177;47.240;-1.546;2024-02-04T07:51:08;5.00;;;1.97;;
77984;SDS011;67177;47.240;-1.546;2024-02-04T07:53:34;4.40;;;1.67;;
77984;SDS011;67177;47.240;-1.546;2024-02-04T07:56:01;3.83;;;1.52;;
77984;SDS011;67177;47.240;-1.546;2024-02-04T07:58:28;7.77;;;2.40;;
77984;SDS011;67177;47.240;-1.546;2024-02-04T08:00:54;6.85;;;2.63;;
77984;SDS011;67177;47.240;-1.546;2024-02-04T08:03:20;4.70;;;2.00;;
77984;SDS011;67177;47.240;-1.546;2024-02-04T08:05:46;5.33;;;2.00;;
77984;SDS011;67177;47.240;-1.546;2024-02-04T08:08:11;4.97;;;1.90;;
77984;SDS011;67177;47.240;-1.546;2024-02-04T08:10:37;4.38;;;1.65;;
77984;SDS011;67177;47.240;-1.546;2024-02-04T08:13:03;4.47;;;1.47;;
77984;SDS011;67177;47.240;-1.546;2024-02-04T08:15:29;4.40;;;1.70;;
77984;SDS011;67177;47.240;-1.546;2024-02-04T08:17:54;4.43;;;1.42;;
77984;SDS011;67177;47.240;-1.546;2024-02-04T08:20:20;4.10;;;1.58;;
77984;SDS011;67177;47.240;-1.546;2024-02-04T08:22:46;4.72;;;1.73;;
77984;SDS011;67177;47.240;-1.546;2024-02-04T08:25:12;4.20;;;1.50;;
77984;SDS011;67177;47.240;-1.546;2024-02-04T08:27:38;4.38;;;1.67;;
77984;SDS011;67177;47.240;-1.546;2024-02-04T08:30:04;4.38;;;1.55;;
77984;SDS011;67177;47.240;-1.546;2024-02-04T08:32:30;4.78;;;1.52;;
77984;SDS011;67177;47.240;-1.546;2024-02-04T08:34:56;4.33;;;1.43;;
77984;SDS011;67177;47.240;-1.546;2024-02-04T08:37:22;4.30;;;1.43;;
77984;SDS011;67177;47.240;-1.546;2024-02-04T08:39:47;4.38;;;1.45;;
77984;SDS011;67177;47.240;-1.546;2024-02-04T08:42:13;4.37;;;1.60;;
77984;SDS011;67177;47.240;-1.546;2024-02-04T08:44:40;4.13;;;1.42;;
77984;SDS011;67177;47.240;-1.546;2024-02-04T08:47:06;4.57;;;1.55;;
77984;SDS011;67177;47.240;-1.546;2024-02-04T08:49:35;5.25;;;1.92;;
77984;SDS011;67177;47.240;-1.546;2024-02-04T08:52:01;5.33;;;1.80;;
77984;SDS011;67177;47.240;-1.546;2024-02-04T08:54:27;4.70;;;1.75;;
77984;SDS011;67177;47.240;-1.546;2024-02-04T08:56:53;5.47;;;1.90;;
77984;SDS011;67177;47.240;-1.546;2024-02-04T08:59:19;4.60;;;1.60;;
77984;SDS011;67177;47.240;-1.546;2024-02-04T09:01:45;7.80;;;2.08;;
77984;SDS011;67177;47.240;-1.546;2024-02-04T09:04:10;5.13;;;1.63;;
77984;SDS011;67177;47.240;-1.546;2024-02-04T09:06:36;3.92;;;1.25;;
77984;SDS011;67177;47.240;-1.546;2024-02-04T09:09:02;4.57;;;1.57;;
77984;SDS011;67177;47.240;-1.546;2024-02-04T09:11:27;3.90;;;1.40;;
77984;SDS011;67177;47.240;-1.546;2024-02-04T09:13:53;4.60;;;1.50;;
77984;SDS011;67177;47.240;-1.546;2024-02-04T09:16:19;6.70;;;2.00;;
77984;SDS011;67177;47.240;-1.546;2024-02-04T09:18:44;7.60;;;2.20;;
77984;SDS011;67177;47.240;-1.546;2024-02-04T09:21:12;5.07;;;1.75;;
77984;SDS011;67177;47.240;-1.546;2024-02-04T09:23:38;6.60;;;2.10;;
77984;SDS011;67177;47.240;-1.546;2024-02-04T09:26:03;7.22;;;1.83;;
77984;SDS011;67177;47.240;-1.546;2024-02-04T09:28:29;6.63;;;2.03;;
77984;SDS011;67177;47.240;-1.546;2024-02-04T09:30:55;7.10;;;2.30;;
77984;SDS011;67177;47.240;-1.546;2024-02-04T09:33:21;7.20;;;1.90;;
77984;SDS011;67177;47.240;-1.546;2024-02-04T09:35:46;6.05;;;1.98;;
77984;SDS011;67177;47.240;-1.546;2024-02-04T09:38:14;8.30;;;2.33;;
77984;SDS011;67177;47.240;-1.546;2024-02-04T09:40:40;5.23;;;1.83;;
77984;SDS011;67177;47.240;-1.546;2024-02-04T09:43:06;5.57;;;1.70;;
77984;SDS011;67177;47.240;-1.546;2024-02-04T09:45:32;5.20;;;1.90;;
77984;SDS011;67177;47.240;-1.546;2024-02-04T09:47:59;7.20;;;2.33;;
77984;SDS011;67177;47.240;-1.546;2024-02-04T09:50:26;5.25;;;1.98;;
77984;SDS011;67177;47.240;-1.546;2024-02-04T09:52:52;7.23;;;1.70;;
77984;SDS011;67177;47.240;-1.546;2024-02-04T09:55:23;5.30;;;2.05;;
77984;SDS011;67177;47.240;-1.546;2024-02-04T09:57:50;6.35;;;1.92;;
77984;SDS011;67177;47.240;-1.546;2024-02-04T10:00:17;7.67;;;2.20;;
77984;SDS011;67177;47.240;-1.546;2024-02-04T10:02:47;7.32;;;2.25;;
77984;SDS011;67177;47.240;-1.546;2024-02-04T10:05:14;5.45;;;2.10;;
77984;SDS011;67177;47.240;-1.546;2024-02-04T10:07:40;6.13;;;2.00;;
77984;SDS011;67177;47.240;-1.546;2024-02-04T10:10:06;10.52;;;2.60;;
77984;SDS011;67177;47.240;-1.546;2024-02-04T10:12:33;10.90;;;3.15;;
77984;SDS011;67177;47.240;-1.546;2024-02-04T10:15:00;6.68;;;2.20;;
77984;SDS011;67177;47.240;-1.546;2024-02-04T10:17:28;8.07;;;2.25;;
77984;SDS011;67177;47.240;-1.546;2024-02-04T10:19:55;9.07;;;2.20;;
77984;SDS011;67177;47.240;-1.546;2024-02-04T10:22:21;7.53;;;1.92;;
77984;SDS011;67177;47.240;-1.546;2024-02-04T10:24:47;7.38;;;2.30;;
77984;SDS011;67177;47.240;-1.546;2024-02-04T10:27:14;4.83;;;1.80;;
77984;SDS011;67177;47.240;-1.546;2024-02-04T10:29:40;5.90;;;1.90;;
77984;SDS011;67177;47.240;-1.546;2024-02-04T10:32:06;6.10;;;1.70;;
77984;SDS011;67177;47.240;-1.546;2024-02-04T10:34:36;6.32;;;2.20;;
77984;SDS011;67177;47.240;-1.546;2024-02-04T10:37:02;5.27;;;1.90;;
77984;SDS011;67177;47.240;-1.546;2024-02-04T10:39:28;6.85;;;2.40;;
77984;SDS011;67177;47.240;-1.546;2024-02-04T10:41:54;6.20;;;2.37;;
77984;SDS011;67177;47.240;-1.546;2024-02-04T10:44:25;10.43;;;3.00;;
77984;SDS011;67177;47.240;-1.546;2024-02-04T10:46:53;7.43;;;2.90;;
77984;SDS011;67177;47.240;-1.546;2024-02-04T10:49:20;8.57;;;3.15;;
77984;SDS011;67177;47.240;-1.546;2024-02-04T10:51:46;8.75;;;2.92;;
77984;SDS011;67177;47.240;-1.546;2024-02-04T10:54:16;7.53;;;2.90;;
77984;SDS011;67177;47.240;-1.546;2024-02-04T10:56:44;7.00;;;2.75;;
77984;SDS011;67177;47.240;-1.546;2024-02-04T10:59:11;9.55;;;2.92;;
77984;SDS011;67177;47.240;-1.546;2024-02-04T11:01:38;7.60;;;3.00;;
77984;SDS011;67177;47.240;-1.546;2024-02-04T11:04:05;9.88;;;3.50;;
77984;SDS011;67177;47.240;-1.546;2024-02-04T11:06:31;7.40;;;3.17;;
77984;SDS011;67177;47.240;-1.546;2024-02-04T11:08:58;8.95;;;3.45;;
77984;SDS011;67177;47.240;-1.546;2024-02-04T11:11:25;7.65;;;3.50;;
77984;SDS011;67177;47.240;-1.546;2024-02-04T11:13:53;7.38;;;3.10;;
77984;SDS011;67177;47.240;-1.546;2024-02-04T11:16:27;8.65;;;3.15;;
77984;SDS011;67177;47.240;-1.546;2024-02-04T11:27:30;8.77;;;3.70;;
77984;SDS011;67177;47.240;-1.546;2024-02-04T11:29:56;10.20;;;3.30;;
77984;SDS011;67177;47.240;-1.546;2024-02-04T11:32:23;10.38;;;3.72;;
77984;SDS011;67177;47.240;-1.546;2024-02-04T11:34:50;8.07;;;2.78;;
77984;SDS011;67177;47.240;-1.546;2024-02-04T11:37:16;8.57;;;3.17;;
77984;SDS011;67177;47.240;-1.546;2024-02-04T11:39:49;6.68;;;2.75;;
77984;SDS011;67177;47.240;-1.546;2024-02-04T11:42:22;9.52;;;2.85;;
77984;SDS011;67177;47.240;-1.546;2024-02-04T11:44:48;7.35;;;2.72;;
77984;SDS011;67177;47.240;-1.546;2024-02-04T11:47:24;8.75;;;3.25;;
77984;SDS011;67177;47.240;-1.546;2024-02-04T11:49:54;7.60;;;3.33;;
77984;SDS011;67177;47.240;-1.546;2024-02-04T11:52:23;9.25;;;3.05;;
77984;SDS011;67177;47.240;-1.546;2024-02-04T11:54:48;14.55;;;3.90;;
77984;SDS011;67177;47.240;-1.546;2024-02-04T11:57:14;10.17;;;4.17;;
77984;SDS011;67177;47.240;-1.546;2024-02-04T11:59:40;14.82;;;5.40;;
77984;SDS011;67177;47.240;-1.546;2024-02-04T12:02:08;11.27;;;4.53;;
77984;SDS011;67177;47.240;-1.546;2024-02-04T12:04:34;9.77;;;4.78;;
77984;SDS011;67177;47.240;-1.546;2024-02-04T12:07:00;8.70;;;3.70;;
77984;SDS011;67177;47.240;-1.546;2024-02-04T12:09:27;8.50;;;4.22;;
77984;SDS011;67177;47.240;-1.546;2024-02-04T12:11:54;8.13;;;3.47;;
77984;SDS011;67177;47.240;-1.546;2024-02-04T12:14:20;7.78;;;3.20;;
77984;SDS011;67177;47.240;-1.546;2024-02-04T12:16:47;8.80;;;3.22;;
77984;SDS011;67177;47.240;-1.546;2024-02-04T12:19:12;8.37;;;3.23;;
77984;SDS011;67177;47.240;-1.546;2024-02-04T12:21:38;7.17;;;3.30;;
77984;SDS011;67177;47.240;-1.546;2024-02-04T12:24:04;6.78;;;2.90;;
77984;SDS011;67177;47.240;-1.546;2024-02-04T12:26:30;12.52;;;4.65;;
77984;SDS011;67177;47.240;-1.546;2024-02-04T12:28:56;12.20;;;4.20;;
77984;SDS011;67177;47.240;-1.546;2024-02-04T12:31:24;9.15;;;3.78;;
77984;SDS011;67177;47.240;-1.546;2024-02-04T12:33:53;8.73;;;3.90;;
77984;SDS011;67177;47.240;-1.546;2024-02-04T12:36:26;11.00;;;4.30;;
77984;SDS011;67177;47.240;-1.546;2024-02-04T12:38:55;9.98;;;4.10;;
77984;SDS011;67177;47.240;-1.546;2024-02-04T12:41:22;8.77;;;4.00;;
77984;SDS011;67177;47.240;-1.546;2024-02-04T12:43:52;8.88;;;3.60;;
77984;SDS011;67177;47.240;-1.546;2024-02-04T12:46:20;10.20;;;3.65;;
77984;SDS011;67177;47.240;-1.546;2024-02-04T12:48:56;9.73;;;3.77;;
77984;SDS011;67177;47.240;-1.546;2024-02-04T12:51:23;10.05;;;4.32;;
77984;SDS011;67177;47.240;-1.546;2024-02-04T12:53:50;12.50;;;5.25;;
77984;SDS011;67177;47.240;-1.546;2024-02-04T12:56:47;9.20;;;4.43;;
77984;SDS011;67177;47.240;-1.546;2024-02-04T12:59:23;14.15;;;5.18;;
77984;SDS011;67177;47.240;-1.546;2024-02-04T13:01:57;10.03;;;4.00;;
77984;SDS011;67177;47.240;-1.546;2024-02-04T13:04:24;9.20;;;4.13;;
77984;SDS011;67177;47.240;-1.546;2024-02-04T13:06:50;10.02;;;4.82;;
77984;SDS011;67177;47.240;-1.546;2024-02-04T13:09:17;13.85;;;5.00;;
77984;SDS011;67177;47.240;-1.546;2024-02-04T13:11:43;11.10;;;5.75;;
77984;SDS011;67177;47.240;-1.546;2024-02-04T13:14:09;13.80;;;6.10;;
77984;SDS011;67177;47.240;-1.546;2024-02-04T13:16:35;10.98;;;5.20;;
77984;SDS011;67177;47.240;-1.546;2024-02-04T13:19:03;11.18;;;5.07;;
77984;SDS011;67177;47.240;-1.546;2024-02-04T13:21:30;11.17;;;5.30;;
77984;SDS011;67177;47.240;-1.546;2024-02-04T13:23:55;12.00;;;5.50;;
77984;SDS011;67177;47.240;-1.546;2024-02-04T13:26:21;11.02;;;5.13;;
77984;SDS011;67177;47.240;-1.546;2024-02-04T13:28:47;8.88;;;4.45;;
77984;SDS011;67177;47.240;-1.546;2024-02-04T13:31:13;11.90;;;4.40;;
77984;SDS011;67177;47.240;-1.546;2024-02-04T13:33:39;12.23;;;4.37;;
77984;SDS011;67177;47.240;-1.546;2024-02-04T13:36:06;11.80;;;4.32;;
77984;SDS011;67177;47.240;-1.546;2024-02-04T13:38:33;8.23;;;3.53;;
77984;SDS011;67177;47.240;-1.546;2024-02-04T13:40:59;7.97;;;3.60;;
77984;SDS011;67177;47.240;-1.546;2024-02-04T13:43:25;7.95;;;3.60;;
77984;SDS011;67177;47.240;-1.546;2024-02-04T13:45:51;10.20;;;3.77;;
77984;SDS011;67177;47.240;-1.546;2024-02-04T13:48:17;7.88;;;3.30;;
77984;SDS011;67177;47.240;-1.546;2024-02-04T13:50:44;14.30;;;3.90;;
77984;SDS011;67177;47.240;-1.546;2024-02-04T13:53:10;11.13;;;3.42;;
77984;SDS011;67177;47.240;-1.546;2024-02-04T13:55:36;10.43;;;3.30;;
77984;SDS011;67177;47.240;-1.546;2024-02-04T13:58:02;10.27;;;3.03;;
77984;SDS011;67177;47.240;-1.546;2024-02-04T14:00:28;7.28;;;2.80;;
77984;SDS011;67177;47.240;-1.546;2024-02-04T14:02:54;8.00;;;2.67;;
77984;SDS011;67177;47.240;-1.546;2024-02-04T14:05:20;8.93;;;2.50;;
77984;SDS011;67177;47.240;-1.546;2024-02-04T14:07:46;6.05;;;2.45;;
77984;SDS011;67177;47.240;-1.546;2024-02-04T14:10:11;7.77;;;2.20;;
77984;SDS011;67177;47.240;-1.546;2024-02-04T14:12:39;10.98;;;2.83;;
77984;SDS011;67177;47.240;-1.546;2024-02-04T14:15:06;8.00;;;2.60;;
77984;SDS011;67177;47.240;-1.546;2024-02-04T14:17:32;9.80;;;3.40;;
77984;SDS011;67177;47.240;-1.546;2024-02-04T14:19:58;13.10;;;2.90;;
77984;SDS011;67177;47.240;-1.546;2024-02-04T14:22:24;22.73;;;4.67;;
77984;SDS011;67177;47.240;-1.546;2024-02-04T14:24:49;11.85;;;2.78;;
77984;SDS011;67177;47.240;-1.546;2024-02-04T14:27:15;10.60;;;2.70;;
77984;SDS011;67177;47.240;-1.546;2024-02-04T14:29:41;9.18;;;2.80;;
77984;SDS011;67177;47.240;-1.546;2024-02-04T14:32:07;7.30;;;2.30;;
77984;SDS011;67177;47.240;-1.546;2024-02-04T14:34:34;6.13;;;1.73;;
77984;SDS011;67177;47.240;-1.546;2024-02-04T14:37:00;10.90;;;2.40;;
77984;SDS011;67177;47.240;-1.546;2024-02-04T14:39:25;6.47;;;1.90;;
77984;SDS011;67177;47.240;-1.546;2024-02-04T14:41:52;8.05;;;2.78;;
77984;SDS011;67177;47.240;-1.546;2024-02-04T14:44:19;8.02;;;2.88;;